createdAt,value
2023-01-20T00:01:12.075Z,36.22
2023-01-20T00:03:39.959Z,30.98
2023-01-20T00:06:07.693Z,38.63
2023-01-20T00:08:35.222Z,35.92
2023-01-20T00:11:07.139Z,37.45
2023-01-20T00:13:35.060Z,31.98
2023-01-20T00:16:04.084Z,38.90
2023-01-20T00:18:31.590Z,35.15
2023-01-20T00:21:02.748Z,34.28
2023-01-20T00:23:30.506Z,31.20
2023-01-20T00:25:57.921Z,36.28
2023-01-20T00:28:25.268Z,35.40
2023-01-20T00:30:52.667Z,33.97
2023-01-20T00:33:19.978Z,31.05
2023-01-20T00:35:47.360Z,31.83
2023-01-20T00:38:15.364Z,33.38
2023-01-20T00:40:42.759Z,39.45
2023-01-20T00:43:12.042Z,34.75
2023-01-20T00:45:39.349Z,39.60
2023-01-20T00:48:07.225Z,33.28
2023-01-20T00:50:34.628Z,34.45
2023-01-20T00:53:01.959Z,35.80
2023-01-20T00:55:29.378Z,33.90
2023-01-20T00:57:56.759Z,37.28
2023-01-20T01:00:24.247Z,35.70
2023-01-20T01:02:54.168Z,40.90
2023-01-20T01:06:06.627Z,35.83
2023-01-20T01:08:35.072Z,38.20
2023-01-20T01:11:02.486Z,39.33
2023-01-20T01:13:29.863Z,37.65
2023-01-20T01:15:57.314Z,42.75
2023-01-20T01:18:24.744Z,38.28
2023-01-20T01:20:52.172Z,37.38
2023-01-20T01:23:19.678Z,40.40
2023-01-20T01:25:47.138Z,35.10
2023-01-20T01:28:14.897Z,35.55
2023-01-20T01:30:42.350Z,36.15
2023-01-20T01:33:09.830Z,38.47
2023-01-20T01:35:37.212Z,33.92
2023-01-20T01:38:04.599Z,39.08
2023-01-20T01:40:31.993Z,36.35
2023-01-20T01:42:59.477Z,43.00
2023-01-20T01:45:27.878Z,35.95
2023-01-20T01:47:58.894Z,38.33
2023-01-20T01:50:29.183Z,39.80
2023-01-20T01:52:57.388Z,46.33
2023-01-20T01:55:27.410Z,45.08
2023-01-20T01:57:55.416Z,43.92
2023-01-20T02:00:22.795Z,45.45
2023-01-20T02:02:50.215Z,44.60
2023-01-20T02:05:18.539Z,34.33
2023-01-20T02:07:47.392Z,38.63
2023-01-20T02:10:16.622Z,38.55
2023-01-20T02:12:47.381Z,38.03
2023-01-20T02:15:15.426Z,37.60
2023-01-20T02:17:53.969Z,39.35
2023-01-20T02:20:41.288Z,40.50
2023-01-20T02:23:28.523Z,36.13
2023-01-20T02:26:15.731Z,40.08
2023-01-20T02:29:03.178Z,36.47
2023-01-20T02:31:46.785Z,36.13
2023-01-20T02:34:17.855Z,36.97
2023-01-20T02:36:48.325Z,36.75
2023-01-20T02:39:27.122Z,31.48
2023-01-20T02:41:59.901Z,35.35
2023-01-20T02:44:32.261Z,43.97
2023-01-20T02:47:19.473Z,37.78
2023-01-20T02:49:56.890Z,34.20
2023-01-20T02:52:27.381Z,41.15
2023-01-20T02:54:57.153Z,42.65
2023-01-20T02:57:28.709Z,42.88
2023-01-20T02:59:57.991Z,38.33
2023-01-20T03:02:26.643Z,45.65
2023-01-20T03:04:58.539Z,34.65
2023-01-20T03:07:28.453Z,44.75
2023-01-20T03:09:57.034Z,40.92
2023-01-20T03:12:27.877Z,40.88
2023-01-20T03:14:55.389Z,44.38
2023-01-20T03:17:23.688Z,44.42
2023-01-20T03:19:51.098Z,47.60
2023-01-20T03:22:18.532Z,40.90
2023-01-20T03:24:47.379Z,39.60
2023-01-20T03:27:15.027Z,44.83
2023-01-20T03:29:42.376Z,39.58
2023-01-20T03:32:11.035Z,39.00
2023-01-20T03:34:40.661Z,42.45
2023-01-20T03:37:08.311Z,39.58
2023-01-20T03:39:39.821Z,36.92
2023-01-20T03:42:27.094Z,42.25
2023-01-20T03:45:14.627Z,43.78
2023-01-20T03:48:01.963Z,41.17
2023-01-20T03:50:49.166Z,41.08
2023-01-20T03:53:37.538Z,44.42
2023-01-20T03:56:08.801Z,47.85
2023-01-20T03:58:38.243Z,47.00
2023-01-20T04:01:09.470Z,42.38
2023-01-20T04:03:46.730Z,38.58
2023-01-20T04:06:15.679Z,42.17
2023-01-20T04:08:47.164Z,45.33
2023-01-20T04:11:14.548Z,41.67
2023-01-20T04:13:41.965Z,41.88
2023-01-20T04:16:12.919Z,37.55
2023-01-20T04:18:42.440Z,46.83
2023-01-20T04:21:11.281Z,45.78
2023-01-20T04:23:44.814Z,48.13
2023-01-20T04:26:12.078Z,58.53
2023-01-20T04:28:39.387Z,52.83
2023-01-20T04:31:08.641Z,55.05
2023-01-20T04:33:39.057Z,48.05
2023-01-20T04:36:07.470Z,53.88
2023-01-20T04:38:34.783Z,54.90
2023-01-20T04:41:03.642Z,51.85
2023-01-20T04:43:31.020Z,51.40
2023-01-20T04:45:58.400Z,54.42
2023-01-20T04:48:25.785Z,46.70
2023-01-20T04:50:53.167Z,49.65
2023-01-20T04:53:20.528Z,51.00
2023-01-20T04:55:47.958Z,58.85
2023-01-20T04:58:15.375Z,54.60
2023-01-20T05:00:43.773Z,60.25
2023-01-20T05:03:11.427Z,56.22
2023-01-20T05:05:38.827Z,51.33
2023-01-20T05:08:06.494Z,47.58
2023-01-20T05:10:34.131Z,53.28
2023-01-20T05:13:02.027Z,50.70
2023-01-20T05:15:29.428Z,57.95
2023-01-20T05:17:56.827Z,86.22
2023-01-20T05:20:24.167Z,65.55
2023-01-20T05:22:51.504Z,52.65
2023-01-20T05:25:18.807Z,71.03
2023-01-20T05:27:46.228Z,69.30
2023-01-20T05:30:13.727Z,75.45
2023-01-20T05:32:41.151Z,74.10
2023-01-20T05:35:09.051Z,64.97
2023-01-20T05:37:36.425Z,68.97
2023-01-20T05:40:03.746Z,50.88
2023-01-20T05:42:33.022Z,63.28
2023-01-20T05:45:00.357Z,66.20
2023-01-20T05:47:27.742Z,59.55
2023-01-20T05:49:55.041Z,59.33
2023-01-20T05:52:22.489Z,61.03
2023-01-20T05:54:50.136Z,56.28
2023-01-20T05:57:18.865Z,59.85
2023-01-20T05:59:48.103Z,61.50
2023-01-20T06:02:18.773Z,57.53
2023-01-20T06:04:49.802Z,59.85
2023-01-20T06:07:17.235Z,55.67
2023-01-20T06:09:44.586Z,59.28
2023-01-20T06:12:12.123Z,50.10
2023-01-20T06:14:39.513Z,54.92
2023-01-20T06:17:06.923Z,46.13
2023-01-20T06:19:34.305Z,45.55
2023-01-20T06:22:01.695Z,38.50
2023-01-20T06:24:29.009Z,40.17
2023-01-20T06:26:56.383Z,45.85
2023-01-20T06:29:23.984Z,48.67
2023-01-20T06:31:51.411Z,49.85
2023-01-20T06:34:18.785Z,54.20
2023-01-20T06:36:46.129Z,45.85
2023-01-20T06:39:13.460Z,54.03
2023-01-20T06:41:40.985Z,48.75
2023-01-20T06:44:08.360Z,58.78
2023-01-20T06:46:35.711Z,67.30
2023-01-20T06:49:03.207Z,53.53
2023-01-20T06:51:31.256Z,65.65
2023-01-20T06:53:58.910Z,113.03
2023-01-20T06:56:26.294Z,106.03
2023-01-20T06:58:53.708Z,175.93
2023-01-20T07:01:25.648Z,76.72
2023-01-20T07:03:53.356Z,98.40
2023-01-20T07:06:38.576Z,75.85
2023-01-20T07:09:06.920Z,80.60
2023-01-20T07:11:35.899Z,90.75
2023-01-20T07:14:03.949Z,81.18
2023-01-20T07:16:31.772Z,90.00
2023-01-20T07:18:59.388Z,98.07
2023-01-20T07:21:27.044Z,48.45
2023-01-20T07:23:54.440Z,65.03
2023-01-20T07:26:24.472Z,62.25
2023-01-20T07:28:52.233Z,70.85
2023-01-20T07:31:20.810Z,58.85
2023-01-20T07:33:48.481Z,66.90
2023-01-20T07:36:16.633Z,48.28
2023-01-20T07:38:44.613Z,105.55
2023-01-20T07:41:16.248Z,86.57
2023-01-20T07:43:44.533Z,56.47
2023-01-20T07:46:12.286Z,56.35
2023-01-20T07:48:39.811Z,58.70
2023-01-20T07:51:08.310Z,48.88
2023-01-20T07:53:37.299Z,50.13
2023-01-20T07:56:05.456Z,55.70
2023-01-20T07:58:33.065Z,43.60
2023-01-20T08:01:07.318Z,51.13
2023-01-20T08:03:34.804Z,47.40
2023-01-20T08:06:04.285Z,51.80
2023-01-20T08:08:32.834Z,45.38
2023-01-20T08:11:01.509Z,44.38
2023-01-20T08:13:29.298Z,51.72
2023-01-20T08:15:56.976Z,42.58
2023-01-20T08:18:24.310Z,43.97
2023-01-20T08:20:51.741Z,44.33
2023-01-20T08:23:19.063Z,46.38
2023-01-20T08:25:58.576Z,53.58
2023-01-20T08:28:26.195Z,49.80
2023-01-20T08:30:53.791Z,44.45
2023-01-20T08:33:21.394Z,45.92
2023-01-20T08:35:48.935Z,46.22
2023-01-20T08:38:16.322Z,45.80
2023-01-20T08:40:44.289Z,44.42
2023-01-20T08:43:12.159Z,40.45
2023-01-20T08:45:40.042Z,50.92
2023-01-20T08:48:08.798Z,57.00
2023-01-20T08:50:36.870Z,54.47
2023-01-20T08:53:04.369Z,49.03
2023-01-20T08:55:31.773Z,56.50
2023-01-20T08:57:59.198Z,47.67
2023-01-20T09:00:26.630Z,51.70
2023-01-20T09:02:54.044Z,55.13
2023-01-20T09:05:22.503Z,56.35
2023-01-20T09:07:49.888Z,63.20
2023-01-20T09:10:17.327Z,65.75
2023-01-20T09:12:45.890Z,65.80
2023-01-20T09:15:13.739Z,67.65
2023-01-20T09:17:41.320Z,69.22
2023-01-20T09:20:09.381Z,70.57
2023-01-20T09:22:36.695Z,62.85
2023-01-20T09:25:04.199Z,68.57
2023-01-20T09:27:31.569Z,53.00
2023-01-20T09:29:59.486Z,60.75
2023-01-20T09:32:26.865Z,47.95
2023-01-20T09:34:54.205Z,56.40
2023-01-20T09:37:50.677Z,56.38
2023-01-20T09:40:43.085Z,63.60
2023-01-20T09:43:49.422Z,62.00
2023-01-20T09:46:37.564Z,60.65
2023-01-20T09:49:44.684Z,62.28
2023-01-20T09:52:44.821Z,48.78
2023-01-20T09:55:15.019Z,53.42
2023-01-20T09:57:43.914Z,58.08
2023-01-20T10:00:17.520Z,61.38
2023-01-20T10:02:48.580Z,61.20
2023-01-20T10:05:20.440Z,56.22
2023-01-20T10:08:07.641Z,58.47
2023-01-20T10:10:39.757Z,61.05
2023-01-20T10:13:14.409Z,53.22
2023-01-20T10:15:44.735Z,52.95
2023-01-20T10:18:32.473Z,56.40
2023-01-20T10:21:02.489Z,60.25
2023-01-20T10:23:34.676Z,59.35
2023-01-20T10:26:21.822Z,58.75
2023-01-20T10:28:56.365Z,68.53
2023-01-20T10:31:27.972Z,63.58
2023-01-20T10:33:57.674Z,52.42
2023-01-20T10:36:28.480Z,56.88
2023-01-20T10:39:15.643Z,47.10
2023-01-20T10:41:46.334Z,49.85
2023-01-20T10:44:14.630Z,59.22
2023-01-20T10:47:01.971Z,61.45
2023-01-20T10:49:52.410Z,55.70
2023-01-20T10:52:29.926Z,57.42
2023-01-20T10:55:05.975Z,52.33
2023-01-20T10:57:33.779Z,54.97
2023-01-20T11:00:03.116Z,58.60
2023-01-20T11:02:32.230Z,58.92
2023-01-20T11:05:19.550Z,53.60
2023-01-20T11:07:47.813Z,52.33
2023-01-20T11:10:17.346Z,52.33
2023-01-20T11:12:46.102Z,55.72
2023-01-20T11:15:19.001Z,56.85
2023-01-20T11:17:46.380Z,57.80
2023-01-20T11:20:19.599Z,51.90
2023-01-20T11:22:48.524Z,50.63
2023-01-20T11:25:31.494Z,54.45
2023-01-20T11:27:59.829Z,51.13
2023-01-20T11:30:29.129Z,47.17
2023-01-20T11:33:16.381Z,43.42
2023-01-20T11:35:58.160Z,45.35
2023-01-20T11:38:45.405Z,48.33
2023-01-20T11:41:21.584Z,57.45
2023-01-20T11:43:49.681Z,51.67
2023-01-20T11:46:37.908Z,52.65
2023-01-20T11:49:23.214Z,42.00
2023-01-20T11:52:10.397Z,50.28
2023-01-20T11:54:38.013Z,49.38
2023-01-20T11:57:08.026Z,53.70
2023-01-20T11:59:36.501Z,54.65
2023-01-20T12:02:24.187Z,62.90
2023-01-20T12:05:12.821Z,55.22
2023-01-20T12:08:00.330Z,53.35
2023-01-20T12:10:30.336Z,57.05
2023-01-20T12:13:02.813Z,54.70
2023-01-20T12:15:34.550Z,52.20
2023-01-20T12:18:09.534Z,50.95
2023-01-20T12:20:54.511Z,42.63
2023-01-20T12:23:45.793Z,43.30
2023-01-20T12:26:15.529Z,41.08
2023-01-20T12:28:49.196Z,40.50
2023-01-20T12:31:20.280Z,41.35
2023-01-20T12:33:50.337Z,42.63
2023-01-20T12:36:37.489Z,43.38
2023-01-20T12:39:13.501Z,41.60
2023-01-20T12:42:02.858Z,43.83
2023-01-20T12:44:50.217Z,44.28
2023-01-20T12:47:37.485Z,42.63
2023-01-20T12:50:24.759Z,41.05
2023-01-20T12:52:59.398Z,49.03
2023-01-20T12:55:46.677Z,58.25
2023-01-20T12:58:29.156Z,55.05
2023-01-20T13:01:16.979Z,53.00
2023-01-20T13:04:04.246Z,53.67
2023-01-20T13:06:51.571Z,50.80
2023-01-20T13:09:39.140Z,50.97
2023-01-20T13:12:26.377Z,48.35
2023-01-20T13:14:59.420Z,47.20
2023-01-20T13:17:32.862Z,52.35
2023-01-20T13:20:02.373Z,46.38
2023-01-20T13:22:30.646Z,53.00
2023-01-20T13:24:59.329Z,47.40
2023-01-20T13:27:29.648Z,44.85
2023-01-20T13:29:58.508Z,47.00
2023-01-20T13:32:45.738Z,53.58
2023-01-20T13:35:34.213Z,53.70
2023-01-20T13:38:02.424Z,56.38
2023-01-20T13:40:49.360Z,52.28
2023-01-20T13:43:36.543Z,49.70
2023-01-20T13:46:23.896Z,53.78
2023-01-20T13:49:11.130Z,49.05
2023-01-20T13:51:58.370Z,50.67
2023-01-20T13:54:43.697Z,47.90
2023-01-20T13:57:31.550Z,36.97
2023-01-20T13:59:59.039Z,45.65
2023-01-20T14:02:28.974Z,48.63
2023-01-20T14:04:58.766Z,52.60
2023-01-20T14:07:27.219Z,53.45
2023-01-20T14:09:55.622Z,54.10
2023-01-20T14:12:23.244Z,54.33
2023-01-20T14:14:52.309Z,58.38
2023-01-20T14:17:21.073Z,54.30
2023-01-20T14:19:49.454Z,50.63
2023-01-20T14:22:19.626Z,47.47
2023-01-20T14:24:48.720Z,52.60
2023-01-20T14:27:20.841Z,57.30
2023-01-20T14:29:49.131Z,54.30
2023-01-20T14:32:22.574Z,49.03
2023-01-20T14:34:50.294Z,48.80
2023-01-20T14:37:23.723Z,46.97
2023-01-20T14:39:51.561Z,51.25
2023-01-20T14:42:20.072Z,48.75
2023-01-20T14:44:48.128Z,50.78
2023-01-20T14:47:15.552Z,50.60
2023-01-20T14:49:43.729Z,50.38
2023-01-20T14:52:15.152Z,49.97
2023-01-20T14:54:44.336Z,46.20
2023-01-20T14:57:19.124Z,53.28
2023-01-20T14:59:46.494Z,48.10
2023-01-20T15:02:33.752Z,52.55
2023-01-20T15:05:01.395Z,57.30
2023-01-20T15:07:29.203Z,57.33
2023-01-20T15:10:03.206Z,56.28
2023-01-20T15:12:42.517Z,48.42
2023-01-20T15:15:29.796Z,53.63
2023-01-20T15:18:17.542Z,61.75
2023-01-20T15:20:47.157Z,135.35
2023-01-20T15:23:16.909Z,89.85
2023-01-20T15:25:44.362Z,65.10
2023-01-20T15:28:28.708Z,65.68
2023-01-20T15:30:57.638Z,60.35
2023-01-20T15:33:25.944Z,61.25
2023-01-20T15:35:54.727Z,70.53
2023-01-20T15:38:22.193Z,65.78
2023-01-20T15:40:50.134Z,70.95
2023-01-20T15:43:18.194Z,75.35
2023-01-20T15:45:46.183Z,81.45
2023-01-20T15:48:16.040Z,78.82
2023-01-20T15:50:43.721Z,91.30
2023-01-20T15:53:12.721Z,73.03
2023-01-20T15:55:49.207Z,72.72
2023-01-20T15:58:21.810Z,78.97
2023-01-20T16:00:49.178Z,71.22
2023-01-20T16:03:16.648Z,75.57
2023-01-20T16:05:43.988Z,74.78
2023-01-20T16:08:20.017Z,76.65
2023-01-20T16:10:47.839Z,75.95
2023-01-20T16:13:15.533Z,76.68
2023-01-20T16:15:43.399Z,75.07
2023-01-20T16:18:13.523Z,76.13
2023-01-20T16:20:41.049Z,81.88
2023-01-20T16:23:08.697Z,96.45
2023-01-20T16:25:36.236Z,83.90
2023-01-20T16:28:09.083Z,72.68
2023-01-20T16:30:36.528Z,80.07
2023-01-20T16:33:03.820Z,85.53
2023-01-20T16:35:31.199Z,104.45
2023-01-20T16:37:58.607Z,104.10
2023-01-20T16:40:26.364Z,80.63
2023-01-20T16:42:56.248Z,78.75
2023-01-20T16:45:25.068Z,79.60
2023-01-20T16:47:52.726Z,76.47
2023-01-20T16:50:20.160Z,75.10
2023-01-20T16:52:47.573Z,65.10
2023-01-20T16:55:15.011Z,73.28
2023-01-20T16:57:43.437Z,72.18
2023-01-20T17:00:11.250Z,67.80
2023-01-20T17:02:39.193Z,75.18
2023-01-20T17:05:07.989Z,65.78
2023-01-20T17:07:35.820Z,65.60
2023-01-20T17:10:03.538Z,70.57
2023-01-20T17:12:30.920Z,68.63
2023-01-20T17:14:58.259Z,76.53
2023-01-20T17:17:25.644Z,75.68
2023-01-20T17:19:52.993Z,69.72
2023-01-20T17:22:20.374Z,68.78
2023-01-20T17:24:47.771Z,75.22
2023-01-20T17:27:15.160Z,64.97
2023-01-20T17:29:42.514Z,66.72
2023-01-20T17:32:09.883Z,71.63
2023-01-20T17:34:37.282Z,69.55
2023-01-20T17:37:04.907Z,63.47
2023-01-20T17:39:32.410Z,71.53
2023-01-20T17:41:59.785Z,70.32
2023-01-20T17:44:27.175Z,76.15
2023-01-20T17:46:54.565Z,71.20
2023-01-20T17:49:21.912Z,71.55
2023-01-20T17:51:49.305Z,68.50
2023-01-20T17:54:16.744Z,70.70
2023-01-20T17:56:44.099Z,65.60
2023-01-20T17:59:11.532Z,63.70
2023-01-20T18:01:38.979Z,72.03
2023-01-20T18:04:10.355Z,74.28
2023-01-20T18:06:38.754Z,78.15
2023-01-20T18:09:07.244Z,78.65
2023-01-20T18:11:36.126Z,76.88
2023-01-20T18:14:04.107Z,83.10
2023-01-20T18:16:33.144Z,78.00
2023-01-20T18:19:00.498Z,70.25
2023-01-20T18:21:29.980Z,70.95
2023-01-20T18:23:57.892Z,76.28
2023-01-20T18:26:26.602Z,80.18
2023-01-20T18:28:55.203Z,81.60
2023-01-20T18:31:23.797Z,83.60
2023-01-20T18:33:52.665Z,92.40
2023-01-20T18:36:23.722Z,64.22
2023-01-20T18:38:52.039Z,64.15
2023-01-20T18:41:19.951Z,65.95
2023-01-20T18:43:47.826Z,71.93
2023-01-20T18:46:15.300Z,68.32
2023-01-20T18:48:45.898Z,70.07
2023-01-20T18:51:15.477Z,69.88
2023-01-20T18:53:43.656Z,72.22
2023-01-20T18:56:12.149Z,73.07
2023-01-20T18:58:39.637Z,72.90
2023-01-20T19:01:08.405Z,81.10
2023-01-20T19:03:36.413Z,79.57
2023-01-20T19:06:05.168Z,76.82
2023-01-20T19:08:32.855Z,69.13
2023-01-20T19:11:01.077Z,72.05
2023-01-20T19:13:28.670Z,66.18
2023-01-20T19:15:56.049Z,69.57
2023-01-20T19:18:24.132Z,68.88
2023-01-20T19:20:52.101Z,62.55
2023-01-20T19:23:19.759Z,72.43
2023-01-20T19:25:47.271Z,70.70
2023-01-20T19:28:14.726Z,64.70
2023-01-20T19:30:42.243Z,59.78
2023-01-20T19:33:12.255Z,64.88
2023-01-20T19:35:42.013Z,59.03
2023-01-20T19:38:09.624Z,63.17
2023-01-20T19:40:37.010Z,67.35
2023-01-20T19:43:06.267Z,61.22
2023-01-20T19:45:45.342Z,60.92
2023-01-20T19:48:13.321Z,60.45
2023-01-20T19:50:41.947Z,59.92
2023-01-20T19:53:09.238Z,64.50
2023-01-20T19:55:36.609Z,69.85
2023-01-20T19:58:03.949Z,70.88
2023-01-20T20:00:31.381Z,60.03
2023-01-20T20:02:58.836Z,74.30
2023-01-20T20:05:26.202Z,81.03
2023-01-20T20:07:53.631Z,81.85
2023-01-20T20:10:21.016Z,77.70
2023-01-20T20:12:48.937Z,78.25
2023-01-20T20:15:16.407Z,75.93
2023-01-20T20:17:43.864Z,76.65
2023-01-20T20:20:11.698Z,78.57
2023-01-20T20:22:39.135Z,84.78
2023-01-20T20:25:09.901Z,91.32
2023-01-20T20:27:38.729Z,85.13
2023-01-20T20:30:07.031Z,81.00
2023-01-20T20:32:34.410Z,73.13
2023-01-20T20:35:01.817Z,84.53
2023-01-20T20:37:29.300Z,88.25
2023-01-20T20:39:56.628Z,91.93
2023-01-20T20:42:24.191Z,94.65
2023-01-20T20:44:51.563Z,93.03
2023-01-20T20:47:20.358Z,98.22
2023-01-20T20:49:47.738Z,105.38
2023-01-20T20:52:15.175Z,113.32
2023-01-20T20:54:42.589Z,113.05
2023-01-20T20:57:09.920Z,110.35
2023-01-20T20:59:47.253Z,95.15
2023-01-20T21:02:25.051Z,93.15
2023-01-20T21:04:52.535Z,82.43
2023-01-20T21:07:19.970Z,92.43
2023-01-20T21:09:47.995Z,99.43
2023-01-20T21:12:15.405Z,96.72
2023-01-20T21:14:43.483Z,101.22
2023-01-20T21:17:10.929Z,93.53
2023-01-20T21:19:38.315Z,97.90
2023-01-20T21:22:06.161Z,103.07
2023-01-20T21:24:33.505Z,104.75
2023-01-20T21:27:01.540Z,95.80
2023-01-20T21:29:28.968Z,100.38
2023-01-20T21:31:57.621Z,104.68
2023-01-20T21:34:24.994Z,98.30
2023-01-20T21:36:52.413Z,94.90
2023-01-20T21:39:20.716Z,88.63
2023-01-20T21:41:48.279Z,80.95
2023-01-20T21:44:36.069Z,83.65
2023-01-20T21:47:04.743Z,88.95
2023-01-20T21:49:52.008Z,82.97
2023-01-20T21:52:40.295Z,78.10
2023-01-20T21:55:08.600Z,79.40
2023-01-20T21:57:35.970Z,78.22
2023-01-20T22:00:05.035Z,77.85
2023-01-20T22:02:32.474Z,76.43
2023-01-20T22:04:59.923Z,77.10
2023-01-20T22:07:27.224Z,79.82
2023-01-20T22:09:57.116Z,68.05
2023-01-20T22:12:25.347Z,72.18
2023-01-20T22:14:52.759Z,78.22
2023-01-20T22:17:20.483Z,81.00
2023-01-20T22:19:47.908Z,82.65
2023-01-20T22:22:15.515Z,83.47
2023-01-20T22:24:43.027Z,71.03
2023-01-20T22:27:10.399Z,73.18
2023-01-20T22:29:37.757Z,70.25
2023-01-20T22:32:05.283Z,72.53
2023-01-20T22:34:32.833Z,65.03
2023-01-20T22:37:00.834Z,65.43
2023-01-20T22:39:28.465Z,75.93
2023-01-20T22:41:55.860Z,68.07
2023-01-20T22:44:23.231Z,64.15
2023-01-20T22:46:50.715Z,74.38
2023-01-20T22:49:18.139Z,75.20
2023-01-20T22:51:45.517Z,63.13
2023-01-20T22:54:13.000Z,69.53
2023-01-20T22:56:40.335Z,66.80
2023-01-20T22:59:07.811Z,71.30
2023-01-20T23:01:36.735Z,63.17
2023-01-20T23:04:05.730Z,63.75
2023-01-20T23:06:33.960Z,58.10
2023-01-20T23:09:01.969Z,65.55
2023-01-20T23:11:29.410Z,66.55
2023-01-20T23:13:56.805Z,59.63
2023-01-20T23:16:24.590Z,65.00
2023-01-20T23:18:52.500Z,66.28
2023-01-20T23:21:20.331Z,60.55
2023-01-20T23:23:54.364Z,53.85
2023-01-20T23:26:23.539Z,59.47
2023-01-20T23:28:50.898Z,58.20
2023-01-20T23:31:18.776Z,57.92
2023-01-20T23:33:46.223Z,50.10
2023-01-20T23:36:15.625Z,54.35
2023-01-20T23:38:43.960Z,52.58
2023-01-20T23:41:11.672Z,54.75
2023-01-20T23:43:39.129Z,51.30
2023-01-20T23:46:07.009Z,55.58
2023-01-20T23:48:35.217Z,56.40
2023-01-20T23:51:03.035Z,48.72
2023-01-20T23:53:31.623Z,60.22
2023-01-20T23:56:03.000Z,55.42
2023-01-20T23:58:30.327Z,54.10
